Time;durP1;ratioP1;P1;durP2;ratioP2;P2;SDS_P1;SDS_P2;PMS_P1;PMS_P2;Temp;Humidity;BMP_temperature;BMP_pressure;BME280_temperature;BME280_humidity;BME280_pressure;Samples;Min_cycle;Max_cycle;Signal;HPM_P1;HPM_P2
2022/09/28 00:01:54;;;;;;;0.70;0.70;;;;;;;29.74;23.52;96539.81;5068275;28;20131;-77
2022/09/28 00:04:20;;;;;;;1.58;0.80;;;;;;;29.89;22.99;96537.56;5066906;28;20032;-77
2022/09/28 00:06:47;;;;;;;0.95;0.70;;;;;;;29.84;22.89;96530.63;5063743;28;20094;-77
2022/09/28 00:09:15;;;;;;;0.70;0.70;;;;;;;29.74;22.89;96534.91;5054912;28;20037;-77
2022/09/28 00:11:42;;;;;;;0.63;0.60;;;;;;;29.84;22.56;96529.84;5066963;28;20044;-77
2022/09/28 00:14:09;;;;;;;1.08;0.70;;;;;;;29.74;23.00;96534.91;5072144;28;20036;-77
2022/09/28 00:16:39;;;;;;;0.90;0.65;;;;;;;29.59;22.89;96528.72;5072019;28;20033;-77
2022/09/28 00:19:05;;;;;;;1.20;0.75;;;;;;;29.62;22.78;96529.72;5063574;28;20033;-77
2022/09/28 00:21:35;;;;;;;1.15;0.77;;;;;;;29.54;22.58;96526.63;5062843;28;20452;-77
2022/09/28 00:24:12;;;;;;;0.77;0.50;;;;;;;29.57;22.63;96527.66;5065650;28;20446;-77
2022/09/28 00:26:42;;;;;;;0.88;0.88;;;;;;;29.61;22.70;96528.97;5063531;28;20045;-77
2022/09/28 00:29:27;;;;;;;0.68;0.65;;;;;;;29.46;22.34;96527.59;5067381;28;20082;-77
2022/09/28 00:31:58;;;;;;;0.68;0.57;;;;;;;29.26;23.02;96531.38;5064388;28;20207;-77
2022/09/28 00:34:26;;;;;;;0.57;0.57;;;;;;;29.26;22.50;96531.38;5050564;28;20031;-77
2022/09/28 00:36:52;;;;;;;0.50;0.50;;;;;;;29.24;22.63;96529.03;5067078;28;20024;-77
2022/09/28 00:39:18;;;;;;;0.77;0.65;;;;;;;29.27;22.60;96521.59;5059157;28;20086;-76
2022/09/28 00:41:45;;;;;;;1.08;0.60;;;;;;;29.19;22.63;96527.00;5058815;28;20033;-77
2022/09/28 00:44:37;;;;;;;0.55;0.50;;;;;;;29.23;22.76;96527.53;5063691;28;20040;-77
2022/09/28 00:47:15;;;;;;;1.60;0.50;;;;;;;29.45;22.42;96528.91;5065994;28;20071;-76
2022/09/28 00:49:47;;;;;;;0.70;0.63;;;;;;;29.43;22.17;96527.34;5050436;28;20039;-77
2022/09/28 00:52:25;;;;;;;0.77;0.43;;;;;;;29.21;22.28;96524.44;5067453;28;20038;-76
2022/09/28 00:54:54;;;;;;;0.47;0.47;;;;;;;29.07;22.25;96525.34;5068617;28;20017;-77
2022/09/28 00:57:21;;;;;;;0.93;0.60;;;;;;;29.08;22.42;96520.47;5071250;28;20028;-77
2022/09/28 00:59:48;;;;;;;0.60;0.60;;;;;;;29.07;22.32;96516.09;5064508;28;20055;-78
2022/09/28 01:02:14;;;;;;;0.55;0.55;;;;;;;29.16;22.05;96511.00;5066304;28;20559;-79
2022/09/28 01:04:40;;;;;;;1.25;0.75;;;;;;;29.19;21.73;96509.25;5066276;28;20032;-79
2022/09/28 01:07:07;;;;;;;0.95;0.75;;;;;;;29.21;21.85;96513.13;5064565;28;20032;-79
2022/09/28 01:09:39;;;;;;;1.10;0.63;;;;;;;29.07;21.73;96519.69;5068063;28;20037;-79
2022/09/28 01:12:05;;;;;;;0.30;0.30;;;;;;;28.49;22.33;96517.47;5066724;28;20037;-79
2022/09/28 01:14:32;;;;;;;0.75;0.60;;;;;;;28.12;22.68;96525.88;5065952;28;20043;-79
2022/09/28 01:17:14;;;;;;;0.88;0.60;;;;;;;27.80;23.32;96527.81;5068904;28;20407;-80
2022/09/28 01:20:10;;;;;;;0.40;0.40;;;;;;;27.68;23.94;96520.50;5071108;28;20051;-79
2022/09/28 01:23:20;;;;;;;0.52;0.40;;;;;;;27.87;23.45;96532.25;5064211;28;20036;-79
2022/09/28 01:25:54;;;;;;;0.50;0.50;;;;;;;28.20;22.73;96526.97;5065192;28;20066;-79
2022/09/28 01:28:28;;;;;;;0.77;0.60;;;;;;;28.15;23.02;96524.88;5071305;28;20028;-79
2022/09/28 01:31:13;;;;;;;2.15;0.50;;;;;;;27.90;23.49;96523.56;5069560;28;20045;-79
2022/09/28 01:34:04;;;;;;;0.60;0.40;;;;;;;27.94;23.30;96520.53;5067734;28;20032;-79
2022/09/28 01:36:41;;;;;;;0.40;0.40;;;;;;;28.35;23.07;96524.03;5069935;28;20552;-79
2022/09/28 01:39:12;;;;;;;0.60;0.50;;;;;;;28.75;22.92;96529.50;5071110;28;20039;-79
2022/09/28 01:41:41;;;;;;;0.80;0.52;;;;;;;28.64;23.02;96521.72;5051777;28;20017;-79
2022/09/28 01:44:14;;;;;;;0.70;0.50;;;;;;;28.93;22.63;96525.50;5069398;28;20051;-80
2022/09/28 01:46:45;;;;;;;0.50;0.50;;;;;;;29.15;22.47;96529.22;5070976;28;20090;-79
2022/09/28 01:49:17;;;;;;;0.73;0.73;;;;;;;28.76;22.50;96533.88;5062374;28;20048;-79
2022/09/28 01:51:54;;;;;;;0.65;0.50;;;;;;;28.66;22.98;96527.63;5070439;28;20082;-79
2022/09/28 01:54:35;;;;;;;0.40;0.40;;;;;;;28.46;23.33;96532.59;5071232;28;20049;-77
2022/09/28 01:57:09;;;;;;;1.50;0.73;;;;;;;28.17;24.00;96533.59;5065435;28;20036;-77
2022/09/28 01:59:39;;;;;;;0.47;0.40;;;;;;;28.24;23.61;96530.34;5057554;28;20039;-77
2022/09/28 02:02:18;;;;;;;0.47;0.40;;;;;;;28.38;23.66;96537.16;5051877;28;20025;-77
2022/09/28 02:05:02;;;;;;;0.85;0.55;;;;;;;28.30;23.97;96536.03;5060369;28;20127;-77
2022/09/28 02:07:44;;;;;;;0.45;0.45;;;;;;;28.45;23.99;96536.69;5063913;28;20066;-77
2022/09/28 02:10:17;;;;;;;1.45;0.50;;;;;;;28.41;23.60;96541.78;5052814;28;20029;-77
2022/09/28 02:12:58;;;;;;;0.52;0.52;;;;;;;28.33;24.29;96547.13;5060145;28;20025;-77
2022/09/28 02:15:35;;;;;;;0.80;0.50;;;;;;;28.65;23.57;96545.09;5075477;28;20498;-77
2022/09/28 02:18:02;;;;;;;0.85;0.47;;;;;;;29.02;23.07;96540.22;5074336;28;20117;-77
2022/09/28 02:20:31;;;;;;;0.40;0.35;;;;;;;29.04;22.88;96537.66;5076576;28;20033;-77
2022/09/28 02:23:00;;;;;;;0.65;0.50;;;;;;;29.08;22.39;96538.19;5076019;28;20025;-77
2022/09/28 02:25:37;;;;;;;0.38;0.38;;;;;;;28.71;22.84;96546.69;5071224;28;20041;-77
2022/09/28 02:28:09;;;;;;;0.40;0.40;;;;;;;28.65;22.69;96540.22;5060069;28;20399;-77
2022/09/28 02:30:37;;;;;;;0.38;0.38;;;;;;;28.47;23.06;96545.44;5074163;28;20036;-77
2022/09/28 02:33:13;;;;;;;1.85;0.40;;;;;;;28.55;22.95;96552.16;5062427;28;20503;-77
2022/09/28 02:35:41;;;;;;;1.55;0.30;;;;;;;28.70;22.44;96550.78;5070613;28;20059;-77
2022/09/28 02:38:09;;;;;;;0.85;0.47;;;;;;;28.80;22.30;96554.19;5065887;28;20051;-77
2022/09/28 02:40:36;;;;;;;0.82;0.50;;;;;;;28.79;22.47;96558.28;5070380;28;20413;-77
2022/09/28 02:43:32;;;;;;;0.75;0.45;;;;;;;28.81;22.41;96554.97;5065946;28;20107;-77
2022/09/28 02:46:13;;;;;;;0.45;0.45;;;;;;;28.80;22.19;96557.00;5070336;28;20513;-76
2022/09/28 02:49:00;;;;;;;0.50;0.40;;;;;;;28.81;22.33;96563.44;5071136;28;20040;-77
2022/09/28 02:51:49;;;;;;;0.38;0.38;;;;;;;28.69;22.07;96562.56;5066146;28;20032;-77
2022/09/28 02:54:22;;;;;;;0.77;0.60;;;;;;;28.58;22.26;96573.75;5072167;28;20028;-77
2022/09/28 02:57:07;;;;;;;0.55;0.43;;;;;;;28.45;21.91;96562.09;5070567;28;20024;-77
2022/09/28 03:00:07;;;;;;;0.40;0.40;;;;;;;27.91;22.63;96553.31;5062277;28;20068;-77
2022/09/28 03:02:48;;;;;;;0.80;0.60;;;;;;;27.90;22.23;96557.44;5065242;28;20540;-77
2022/09/28 03:05:20;;;;;;;0.50;0.40;;;;;;;28.00;22.35;96552.44;5065326;28;20041;-76
2022/09/28 03:07:57;;;;;;;0.40;0.40;;;;;;;28.00;22.65;96552.44;5065562;28;20537;-77
2022/09/28 03:10:30;;;;;;;2.03;0.47;;;;;;;27.96;22.16;96549.00;5063728;28;20086;-76
2022/09/28 03:12:57;;;;;;;1.75;0.35;;;;;;;27.98;21.71;96550.06;5065731;28;20036;-76
2022/09/28 03:15:29;;;;;;;0.57;0.30;;;;;;;28.03;21.89;96549.38;5070444;28;20046;-76
2022/09/28 03:17:56;;;;;;;0.52;0.40;;;;;;;27.93;21.54;96547.19;5068623;28;20044;-77
2022/09/28 03:20:23;;;;;;;0.30;0.30;;;;;;;27.82;22.12;96556.31;5063211;28;20056;-76
2022/09/28 03:22:49;;;;;;;0.22;0.20;;;;;;;27.80;21.86;96556.03;5064298;28;20036;-76
2022/09/28 03:25:15;;;;;;;0.30;0.30;;;;;;;27.77;21.78;96551.38;5065221;28;20028;-76
2022/09/28 03:27:42;;;;;;;0.50;0.40;;;;;;;27.48;21.95;96562.81;5072064;28;20119;-76
2022/09/28 03:30:10;;;;;;;0.30;0.30;;;;;;;27.52;22.34;96552.09;5063445;28;20028;-77
2022/09/28 03:32:36;;;;;;;0.10;0.10;;;;;;;27.59;21.64;96545.25;5070007;28;20036;-76
2022/09/28 03:35:03;;;;;;;0.20;0.20;;;;;;;27.74;21.81;96552.38;5066879;28;20492;-76
2022/09/28 03:37:29;;;;;;;0.40;0.40;;;;;;;27.73;21.43;96552.84;5072406;28;20028;-76
2022/09/28 03:39:55;;;;;;;0.20;0.20;;;;;;;27.62;21.31;96550.69;5065341;28;20071;-76
2022/09/28 03:42:22;;;;;;;0.30;0.30;;;;;;;27.61;21.67;96551.19;5068774;28;20024;-76
2022/09/28 03:44:48;;;;;;;0.85;0.50;;;;;;;27.32;21.77;96550.03;5069316;28;20064;-76
2022/09/28 03:47:16;;;;;;;0.68;0.30;;;;;;;27.28;21.42;96554.34;5068285;28;20040;-76
2022/09/28 03:49:42;;;;;;;0.95;0.47;;;;;;;27.12;21.90;96563.34;5067456;28;20056;-76
2022/09/28 03:52:08;;;;;;;1.00;0.52;;;;;;;27.03;21.84;96555.00;5072697;28;20060;-76
2022/09/28 03:54:34;;;;;;;0.10;0.10;;;;;;;27.08;21.98;96562.75;5065232;28;20036;-77
2022/09/28 03:57:00;;;;;;;0.43;0.35;;;;;;;27.24;21.21;96551.72;5073496;28;20040;-76
2022/09/28 03:59:26;;;;;;;0.52;0.52;;;;;;;26.63;22.42;96556.44;5071935;28;20402;-76
2022/09/28 04:01:52;;;;;;;0.35;0.35;;;;;;;26.63;21.99;96559.25;5068846;28;20489;-76
2022/09/28 04:04:18;;;;;;;0.40;0.40;;;;;;;26.69;21.82;96556.53;5066959;28;20040;-76
2022/09/28 04:06:44;;;;;;;0.20;0.20;;;;;;;26.83;22.21;96558.56;5065279;28;20078;-76
2022/09/28 04:09:11;;;;;;;0.32;0.30;;;;;;;26.90;21.67;96560.19;5068085;28;20033;-76
2022/09/28 04:11:37;;;;;;;0.30;0.30;;;;;;;26.92;21.55;96558.44;5066206;28;20029;-76
2022/09/28 04:14:03;;;;;;;0.30;0.30;;;;;;;26.94;21.55;96557.94;5062257;28;20044;-77
2022/09/28 04:16:29;;;;;;;0.28;0.28;;;;;;;26.71;21.44;96557.59;5063008;28;20045;-76
2022/09/28 04:18:57;;;;;;;0.10;0.10;;;;;;;26.65;22.01;96567.22;5065010;28;20988;-76
2022/09/28 04:21:23;;;;;;;0.30;0.30;;;;;;;26.76;21.83;96569.44;5061216;28;20029;-76
2022/09/28 04:23:50;;;;;;;0.50;0.40;;;;;;;26.84;21.31;96567.81;5067162;28;20119;-76
2022/09/28 04:26:23;;;;;;;0.20;0.20;;;;;;;26.77;21.63;96579.47;5060144;28;20025;-76
2022/09/28 04:31:45;;;;;;;0.73;0.50;;;;;;;26.95;21.46;96573.59;5061846;28;20126;-76
2022/09/28 04:34:13;;;;;;;0.40;0.40;;;;;;;27.12;21.20;96571.81;5058805;28;20033;-77
2022/09/28 04:36:40;;;;;;;0.20;0.20;;;;;;;27.10;21.07;96580.72;5062219;28;20048;-76
2022/09/28 04:39:06;;;;;;;0.47;0.47;;;;;;;26.94;21.31;96580.47;5070289;28;20036;-76
2022/09/28 04:41:32;;;;;;;0.75;0.50;;;;;;;26.95;21.38;96584.84;5061179;28;20045;-77
2022/09/28 04:43:58;;;;;;;0.57;0.40;;;;;;;26.76;21.06;96575.09;5062936;28;20055;-77
2022/09/28 04:46:25;;;;;;;0.85;0.50;;;;;;;26.43;21.52;96586.53;5070997;28;20090;-77
2022/09/28 04:48:51;;;;;;;0.40;0.40;;;;;;;26.47;21.57;96581.50;5068241;28;20025;-77
2022/09/28 04:51:17;;;;;;;0.40;0.40;;;;;;;26.61;21.45;96580.69;5053330;28;20032;-77
2022/09/28 04:53:43;;;;;;;1.15;1.05;;;;;;;26.52;21.78;96590.03;5053990;28;20078;-77
2022/09/28 04:56:13;;;;;;;0.30;0.30;;;;;;;26.63;21.56;96583.81;5053115;28;20044;-77
2022/09/28 04:58:40;;;;;;;0.45;0.30;;;;;;;26.63;21.73;96584.59;5053861;28;20033;-79
2022/09/28 05:01:12;;;;;;;0.30;0.30;;;;;;;26.80;21.73;96598.19;5035164;28;20482;-80
2022/09/28 05:03:38;;;;;;;0.50;0.50;;;;;;;26.92;21.77;96588.66;5064254;28;20021;-79
2022/09/28 05:06:08;;;;;;;1.70;0.35;;;;;;;26.99;21.91;96585.44;5066829;28;20041;-79
2022/09/28 05:08:34;;;;;;;0.40;0.40;;;;;;;27.15;22.26;96591.31;5053285;28;20056;-79
2022/09/28 05:11:04;;;;;;;0.35;0.35;;;;;;;27.42;22.04;96598.63;5060509;28;20478;-80
2022/09/28 05:13:31;;;;;;;0.38;0.38;;;;;;;27.53;22.08;96595.97;5073433;28;20028;-80
2022/09/28 05:15:58;;;;;;;0.40;0.40;;;;;;;27.52;22.26;96587.97;5072953;28;20581;-80
2022/09/28 05:18:25;;;;;;;0.57;0.45;;;;;;;27.53;22.72;96598.78;5073297;28;20063;-80
2022/09/28 05:20:51;;;;;;;0.40;0.40;;;;;;;27.66;22.66;96592.75;5073279;28;20035;-79
2022/09/28 05:23:17;;;;;;;0.63;0.40;;;;;;;27.83;22.65;96596.56;5065022;28;20033;-79
2022/09/28 05:25:46;;;;;;;0.40;0.40;;;;;;;28.06;22.41;96589.94;5053112;28;20040;-80
2022/09/28 05:28:12;;;;;;;0.50;0.47;;;;;;;27.99;22.53;96593.97;5053290;28;20509;-79
2022/09/28 05:30:38;;;;;;;0.50;0.50;;;;;;;28.08;22.52;96603.56;5052487;28;20037;-80
2022/09/28 05:33:05;;;;;;;0.40;0.30;;;;;;;28.21;22.50;96587.03;5053592;28;20024;-80
2022/09/28 05:35:31;;;;;;;0.30;0.30;;;;;;;28.33;22.16;96591.50;5073316;28;20397;-80
2022/09/28 05:38:03;;;;;;;0.40;0.40;;;;;;;28.13;22.54;96585.91;5072812;28;20028;-80
2022/09/28 05:40:29;;;;;;;0.32;0.32;;;;;;;28.10;22.30;96586.91;5063298;28;20047;-80
2022/09/28 05:43:00;;;;;;;0.40;0.40;;;;;;;28.11;22.32;96592.06;5054388;28;20029;-80
2022/09/28 05:45:27;;;;;;;0.50;0.38;;;;;;;28.17;22.04;96594.94;5072512;28;20111;-80
2022/09/28 05:47:53;;;;;;;0.80;0.40;;;;;;;28.27;21.86;96587.84;5054920;28;20028;-80
2022/09/28 05:50:19;;;;;;;0.22;0.20;;;;;;;28.31;21.77;96594.81;5068156;28;20033;-80
2022/09/28 05:52:45;;;;;;;0.57;0.40;;;;;;;28.17;21.68;96600.59;5072761;28;20028;-79
2022/09/28 05:55:11;;;;;;;0.28;0.20;;;;;;;28.19;21.89;96596.00;5072761;28;20067;-80
2022/09/28 05:57:38;;;;;;;0.50;0.50;;;;;;;28.41;21.60;96606.72;5061877;28;20063;-80
2022/09/28 06:00:08;;;;;;;0.30;0.30;;;;;;;28.44;21.80;96597.25;5052759;28;20043;-80
2022/09/28 06:02:34;;;;;;;;;;;;;;;28.42;22.05;96599.81;5054893;28;20044;-80
2022/09/28 06:05:01;;;;;;;0.88;0.82;;;;;;;28.71;22.14;96605.22;5035457;28;19917;-80
2022/09/28 06:07:27;;;;;;;0.50;0.50;;;;;;;28.54;23.31;96595.81;5034558;28;20060;-80
2022/09/28 06:09:53;;;;;;;0.50;0.50;;;;;;;28.79;23.23;96606.31;5052894;28;20033;-80
2022/09/28 06:12:19;;;;;;;0.50;0.50;;;;;;;29.13;22.49;96604.50;5069167;28;20033;-80
2022/09/28 06:14:45;;;;;;;0.30;0.30;;;;;;;29.32;21.93;96605.69;5042472;28;20371;-80
2022/09/28 06:17:11;;;;;;;0.40;0.40;;;;;;;29.52;21.96;96602.75;5052595;28;20422;-80
2022/09/28 06:19:38;;;;;;;2.28;0.47;;;;;;;29.48;22.19;96604.25;5018426;28;20036;-80
2022/09/28 06:22:04;;;;;;;0.30;0.30;;;;;;;29.32;21.48;96600.03;5052383;28;20056;-80
2022/09/28 06:24:30;;;;;;;1.23;0.50;;;;;;;29.18;21.92;96603.81;5052678;28;20041;-80
2022/09/28 06:26:56;;;;;;;0.28;0.25;;;;;;;29.49;21.79;96602.97;5052524;28;20043;-80
2022/09/28 06:29:22;;;;;;;1.02;0.30;;;;;;;29.14;21.87;96598.38;5069858;28;20041;-80
2022/09/28 06:31:48;;;;;;;0.52;0.30;;;;;;;29.29;22.02;96596.16;5070886;28;20033;-80
2022/09/28 06:34:14;;;;;;;0.47;0.30;;;;;;;29.34;22.21;96594.66;5072208;28;20054;-80
2022/09/28 06:36:41;;;;;;;0.20;0.20;;;;;;;28.86;22.72;96588.91;5072322;28;20035;-80
2022/09/28 06:39:07;;;;;;;0.30;0.30;;;;;;;29.47;22.01;96594.22;5072442;28;20116;-80
2022/09/28 06:41:33;;;;;;;0.20;0.20;;;;;;;29.70;21.63;96576.06;5072344;28;20029;-80
2022/09/28 06:44:00;;;;;;;0.20;0.20;;;;;;;29.75;20.91;96572.47;5059682;28;20512;-80
2022/09/28 06:46:26;;;;;;;0.10;0.10;;;;;;;29.88;21.66;96570.75;5070191;28;20490;-80
2022/09/28 06:48:53;;;;;;;0.93;0.30;;;;;;;30.20;20.72;96567.75;5058933;28;20083;-80
2022/09/28 06:51:19;;;;;;;0.25;0.20;;;;;;;30.21;20.45;96574.94;5052198;28;20039;-80
2022/09/28 06:53:45;;;;;;;0.35;0.35;;;;;;;29.98;20.80;96574.91;5052283;28;20058;-80
2022/09/28 06:56:11;;;;;;;0.25;0.25;;;;;;;29.90;21.64;96584.38;5052351;28;20502;-80
2022/09/28 06:58:37;;;;;;;0.30;0.30;;;;;;;30.11;20.98;96584.97;5053978;28;20033;-80
2022/09/28 07:01:04;;;;;;;0.50;0.40;;;;;;;30.16;21.29;96592.69;5055207;28;20483;-80
2022/09/28 07:03:30;;;;;;;1.08;0.35;;;;;;;29.67;21.26;96588.38;5073475;28;20458;-80
2022/09/28 07:05:56;;;;;;;0.52;0.40;;;;;;;29.84;21.16;96592.09;5061666;28;20418;-80
2022/09/28 07:08:24;;;;;;;0.13;0.13;;;;;;;29.87;21.51;96599.56;5055679;28;20040;-80
2022/09/28 07:10:55;;;;;;;0.30;0.20;;;;;;;29.66;21.33;96601.00;5055731;28;20119;-80
2022/09/28 07:13:22;;;;;;;0.30;0.30;;;;;;;29.83;21.37;96596.97;5055604;28;20033;-80
2022/09/28 07:15:58;;;;;;;0.20;0.20;;;;;;;29.57;21.82;96589.91;5055384;28;20045;-80
2022/09/28 07:18:25;;;;;;;0.20;0.20;;;;;;;29.65;20.91;96590.94;5056357;28;20509;-80
2022/09/28 07:20:51;;;;;;;0.28;0.20;;;;;;;29.55;21.55;96589.59;5075558;28;20077;-80
2022/09/28 07:23:17;;;;;;;0.20;0.20;;;;;;;29.88;22.00;96596.22;5074887;28;20501;-80
2022/09/28 07:25:46;;;;;;;0.20;0.20;;;;;;;29.25;21.60;96594.84;5075339;28;20033;-80
2022/09/28 07:28:13;;;;;;;0.30;0.20;;;;;;;29.49;21.71;96603.75;5075497;28;20033;-78
2022/09/28 07:30:39;;;;;;;0.20;0.20;;;;;;;29.41;21.53;96605.47;5074813;28;20115;-78
2022/09/28 07:33:08;;;;;;;0.65;0.30;;;;;;;28.80;21.80;96598.63;5074590;28;20119;-78
2022/09/28 07:35:34;;;;;;;0.75;0.20;;;;;;;28.95;22.18;96602.06;5074909;28;20028;-78
2022/09/28 07:38:02;;;;;;;0.28;0.10;;;;;;;28.89;22.77;96604.88;5070304;28;20367;-78
2022/09/28 07:43:20;;;;;;;0.20;0.17;;;;;;;28.82;21.25;96604.53;5068093;28;20043;-78
2022/09/28 07:45:49;;;;;;;0.10;0.10;;;;;;;28.51;22.14;96605.28;5075011;28;20024;-78
2022/09/28 07:48:15;;;;;;;0.10;0.10;;;;;;;28.78;22.32;96596.28;5074748;28;20040;-79
2022/09/28 07:50:46;;;;;;;0.10;0.10;;;;;;;28.80;21.41;96599.38;5075256;28;20056;-78
2022/09/28 07:53:12;;;;;;;0.08;0.08;;;;;;;27.66;22.71;96606.88;5075132;28;20032;-78
2022/09/28 07:55:38;;;;;;;0.20;0.20;;;;;;;27.94;21.71;96602.34;5071764;28;20469;-78
2022/09/28 07:58:04;;;;;;;0.10;0.10;;;;;;;28.14;21.90;96607.22;5054788;28;20486;-78
2022/09/28 08:00:31;;;;;;;0.20;0.20;;;;;;;27.68;23.10;96602.28;5058367;28;20094;-79
2022/09/28 08:03:01;;;;;;;0.60;0.20;;;;;;;28.40;21.17;96602.34;5073997;28;20024;-78
2022/09/28 08:05:30;;;;;;;0.10;0.10;;;;;;;28.16;22.65;96610.31;5074673;28;20027;-78
2022/09/28 08:07:59;;;;;;;0.85;0.10;;;;;;;27.42;21.38;96609.13;5074732;28;20037;-78
2022/09/28 08:10:25;;;;;;;0.10;0.10;;;;;;;27.50;23.18;96605.41;5074127;28;20525;-78
2022/09/28 08:13:02;;;;;;;0.10;0.10;;;;;;;28.21;21.41;96606.78;5069791;28;20033;-78
2022/09/28 08:15:36;;;;;;;0.10;0.10;;;;;;;27.77;22.05;96601.38;5054223;28;20504;-78
2022/09/28 08:18:05;;;;;;;0.13;0.13;;;;;;;27.84;21.92;96595.31;5053962;28;20090;-78
2022/09/28 08:23:18;;;;;;;0.10;0.10;;;;;;;27.27;21.72;96589.41;5054710;28;20035;-78
2022/09/28 08:25:48;;;;;;;0.63;0.13;;;;;;;27.79;21.33;96593.97;5054190;28;20123;-80
2022/09/28 08:28:18;;;;;;;0.20;0.20;;;;;;;27.64;21.69;96589.66;5070720;28;20032;-80
2022/09/28 08:30:45;;;;;;;0.10;0.10;;;;;;;28.14;21.02;96595.94;5072822;28;20044;-80
2022/09/28 08:33:12;;;;;;;0.35;0.10;;;;;;;28.72;21.09;96599.09;5053731;28;20295;-80
2022/09/28 08:35:39;;;;;;;0.15;0.15;;;;;;;28.93;19.77;96590.50;5054153;28;20071;-80
2022/09/28 08:38:06;;;;;;;0.20;0.10;;;;;;;29.07;20.57;96593.19;5054152;28;20029;-78
2022/09/28 08:40:45;;;;;;;0.10;0.10;;;;;;;27.98;20.77;96583.91;5053836;28;20029;-78
2022/09/28 08:43:33;;;;;;;1.02;0.17;;;;;;;28.15;21.01;96586.16;5035960;28;20025;-78
2022/09/28 08:46:00;;;;;;;0.15;0.10;;;;;;;28.28;20.45;96597.88;5053662;28;20025;-78
2022/09/28 08:48:43;;;;;;;0.38;0.10;;;;;;;28.84;20.12;96593.50;5071535;28;20398;-78
2022/09/28 08:51:20;;;;;;;5.32;0.28;;;;;;;28.81;20.41;96586.03;5073825;28;20063;-78
2022/09/28 08:54:04;;;;;;;0.45;0.10;;;;;;;29.27;20.52;96583.81;5073838;28;20025;-81
2022/09/28 08:56:53;;;;;;;4.47;1.52;;;;;;;28.85;21.21;96587.34;5073492;28;20033;-80
2022/09/28 08:59:23;;;;;;;0.38;0.20;;;;;;;28.75;19.95;96586.00;5073569;28;20033;-80
2022/09/28 09:02:02;;;;;;;0.45;0.10;;;;;;;29.24;20.53;96582.00;5072328;28;20437;-80
2022/09/28 09:04:30;;;;;;;0.10;0.10;;;;;;;29.66;19.58;96584.03;5063569;28;20029;-80
2022/09/28 09:07:06;;;;;;;0.00;0.00;;;;;;;29.84;20.54;96581.56;5053608;28;20112;-80
2022/09/28 09:09:50;;;;;;;0.10;0.10;;;;;;;29.98;20.50;96576.97;5053504;28;20029;-80
2022/09/28 09:12:48;;;;;;;1.08;0.10;;;;;;;29.25;20.60;96581.50;5053299;28;20049;-80
2022/09/28 09:15:27;;;;;;;1.30;0.13;;;;;;;29.78;20.63;96580.00;5030169;28;20072;-80
2022/09/28 09:17:55;;;;;;;0.55;0.10;;;;;;;29.97;20.75;96583.91;5058344;28;20073;-80
2022/09/28 09:20:46;;;;;;;0.10;0.10;;;;;;;30.60;19.32;96578.63;5072308;28;20033;-80
2022/09/28 09:23:38;;;;;;;0.10;0.10;;;;;;;30.89;19.88;96577.38;5053437;28;20029;-80
2022/09/28 09:26:16;;;;;;;0.40;0.40;;;;;;;30.56;20.96;96583.78;5056487;28;20041;-80
2022/09/28 09:29:08;;;;;;;0.20;0.10;;;;;;;30.84;19.56;96587.41;5073332;28;20063;-80
2022/09/28 09:31:41;;;;;;;0.10;0.10;;;;;;;31.32;19.79;96581.44;5051971;28;20509;-81
2022/09/28 09:34:41;;;;;;;0.05;0.03;;;;;;;31.34;18.34;96573.94;5052968;28;20368;-81
2022/09/28 09:37:40;;;;;;;0.28;0.10;;;;;;;31.65;19.24;96581.34;5035315;28;20112;-80
2022/09/28 09:40:25;;;;;;;0.10;0.10;;;;;;;31.59;19.39;96586.28;5040122;28;20041;-80
2022/09/28 09:43:39;;;;;;;0.10;0.10;;;;;;;31.35;18.14;96581.16;5053251;28;20075;-80
2022/09/28 09:46:17;;;;;;;0.10;0.10;;;;;;;31.22;18.88;96586.63;5071541;28;20064;-80
2022/09/28 09:48:52;;;;;;;0.35;0.10;;;;;;;31.14;19.17;96587.66;5072900;28;20032;-80
2022/09/28 09:51:43;;;;;;;0.10;0.10;;;;;;;31.13;18.23;96584.06;5073203;28;20090;-80
2022/09/28 09:54:21;;;;;;;0.25;0.10;;;;;;;30.95;19.85;96589.50;5052988;28;20029;-80
2022/09/28 09:57:21;;;;;;;0.20;0.05;;;;;;;31.06;19.95;96587.41;5052923;28;20033;-80
2022/09/28 09:59:48;;;;;;;0.00;0.00;;;;;;;31.55;18.91;96582.19;5059166;28;20041;-81
2022/09/28 10:02:29;;;;;;;0.10;0.10;;;;;;;31.60;19.63;96576.47;5072096;28;20115;-81
2022/09/28 10:05:09;;;;;;;0.85;0.10;;;;;;;31.92;19.17;96571.97;5072707;28;20033;-80
2022/09/28 10:07:49;;;;;;;0.00;0.00;;;;;;;32.18;19.61;96568.75;5072842;28;20033;-81
2022/09/28 10:10:26;;;;;;;0.27;0.27;;;;;;;31.94;18.64;96563.69;5072663;28;20056;-80
2022/09/28 10:12:53;;;;;;;0.10;0.10;;;;;;;29.61;20.95;96562.91;5059498;28;20021;-83
2022/09/28 10:15:25;;;;;;;0.10;0.10;;;;;;;30.06;21.26;96558.19;5052310;28;20049;-81
2022/09/28 10:17:53;;;;;;;0.10;0.08;;;;;;;30.61;20.20;96560.34;5052768;28;20036;-81
2022/09/28 10:20:21;;;;;;;0.43;0.10;;;;;;;31.41;20.69;96558.47;5060797;28;20039;-81
2022/09/28 10:22:49;;;;;;;0.10;0.05;;;;;;;32.09;19.33;96555.63;5072818;28;20017;-81
2022/09/28 10:25:16;;;;;;;0.05;0.05;;;;;;;32.32;19.40;96549.81;5072934;28;20035;-81
2022/09/28 10:27:45;;;;;;;0.50;0.10;;;;;;;32.68;19.45;96557.81;5072270;28;20483;-80
2022/09/28 10:30:22;;;;;;;0.00;0.00;;;;;;;32.87;19.04;96563.59;5056671;28;20033;-81
2022/09/28 10:32:52;;;;;;;0.00;0.00;;;;;;;32.27;19.34;96564.81;5053867;28;20032;-82
2022/09/28 10:35:21;;;;;;;0.10;0.00;;;;;;;32.35;18.54;96549.50;5056473;28;20483;-80
2022/09/28 10:38:05;;;;;;;0.10;0.10;;;;;;;32.70;19.33;96554.44;5056531;28;20032;-81
2022/09/28 10:40:55;;;;;;;0.10;0.10;;;;;;;33.11;18.77;96555.13;5056405;28;20029;-81
2022/09/28 10:43:37;;;;;;;0.00;0.00;;;;;;;32.64;18.99;96551.66;5064543;28;20079;-81
2022/09/28 10:46:08;;;;;;;0.70;0.10;;;;;;;32.22;19.58;96548.56;5070993;28;20043;-81
2022/09/28 10:49:09;;;;;;;;;;;;;;;32.33;16.71;96548.50;5076467;28;20067;-81
2022/09/28 10:51:39;;;;;;;0.08;0.08;;;;;;;32.67;19.24;96544.16;4972006;28;20363;-81
2022/09/28 10:54:12;;;;;;;0.10;0.10;;;;;;;33.01;18.78;96545.41;5054801;28;20067;-80
2022/09/28 10:56:40;;;;;;;0.00;0.00;;;;;;;32.95;19.45;96547.50;5072175;28;20517;-80
2022/09/28 10:59:23;;;;;;;1.95;0.10;;;;;;;33.28;20.73;96546.44;5072943;28;20036;-79
2022/09/28 11:01:55;;;;;;;0.10;0.00;;;;;;;33.46;19.61;96536.41;5067636;28;20025;-80
2022/09/28 11:04:25;;;;;;;0.10;0.10;;;;;;;33.56;18.92;96531.91;5073763;28;20036;-80
2022/09/28 11:06:52;;;;;;;0.00;0.00;;;;;;;33.32;19.90;96522.06;5072978;28;20035;-79
2022/09/28 11:09:41;;;;;;;0.20;0.10;;;;;;;33.08;19.83;96515.59;5074181;28;20056;-80
2022/09/28 11:12:15;;;;;;;0.10;0.10;;;;;;;32.91;20.71;96512.88;5072574;28;20071;-80
2022/09/28 11:14:45;;;;;;;0.00;0.00;;;;;;;32.45;20.10;96516.63;5068680;28;20444;-80
2022/09/28 11:17:15;;;;;;;0.00;0.00;;;;;;;33.13;19.32;96509.88;5072823;28;20021;-80
2022/09/28 11:19:42;;;;;;;0.60;0.00;;;;;;;33.25;20.03;96501.97;5070234;28;20032;-79
2022/09/28 11:22:41;;;;;;;0.47;0.10;;;;;;;32.95;17.71;96502.00;5073952;28;20051;-79
2022/09/28 11:25:22;;;;;;;0.00;0.00;;;;;;;32.89;19.84;96497.66;5011605;28;20147;-80
2022/09/28 11:27:51;;;;;;;0.10;0.10;;;;;;;32.14;19.66;96482.28;5073796;28;20406;-79
2022/09/28 11:30:43;;;;;;;4.40;0.20;;;;;;;31.87;19.03;96501.00;5071480;28;20037;-79
2022/09/28 11:33:19;;;;;;;0.00;0.00;;;;;;;31.81;20.83;96492.50;5067072;28;20025;-80
2022/09/28 11:35:59;;;;;;;0.00;0.00;;;;;;;31.92;19.11;96498.16;5072323;28;20037;-79
2022/09/28 11:38:30;;;;;;;0.00;0.00;;;;;;;32.62;18.91;96490.97;5071836;28;20078;-79
2022/09/28 11:41:17;;;;;;;1.08;0.20;;;;;;;32.81;18.81;96486.13;5069506;28;20041;-80
2022/09/28 11:44:05;;;;;;;0.25;0.00;;;;;;;32.94;19.29;96482.63;5058813;28;20033;-81
2022/09/28 11:47:02;;;;;;;0.10;0.10;;;;;;;33.49;19.13;96484.88;5072193;28;20470;-79
2022/09/28 11:49:51;;;;;;;1.08;0.10;;;;;;;33.10;18.66;96482.47;5074349;28;20111;-80
2022/09/28 11:52:29;;;;;;;0.10;0.03;;;;;;;32.74;19.04;96470.41;5071660;28;20078;-80
2022/09/28 11:55:19;;;;;;;0.00;0.00;;;;;;;32.26;19.85;96464.63;5051886;28;20036;-81
2022/09/28 11:57:53;;;;;;;0.10;0.10;;;;;;;33.40;19.85;96465.31;5058652;28;20052;-78
2022/09/28 12:00:22;;;;;;;1.75;0.00;;;;;;;33.69;19.00;96469.38;5063880;28;20036;-79
2022/09/28 12:02:51;;;;;;;0.10;0.00;;;;;;;33.82;18.64;96467.34;5067593;28;20020;-80
2022/09/28 12:05:29;;;;;;;0.03;0.00;;;;;;;34.10;17.93;96466.22;5072273;28;20035;-80
2022/09/28 12:08:10;;;;;;;0.20;0.10;;;;;;;34.01;17.85;96458.81;5038931;28;20067;-80